createdAt,value
2022-11-18T00:06:34.056Z,6.79
2022-11-18T00:16:35.643Z,6.41
2022-11-18T00:26:44.593Z,6.34
2022-11-18T00:36:48.764Z,6.17
2022-11-18T00:46:53.519Z,5.95
2022-11-18T00:56:57.207Z,5.89
2022-11-18T01:07:01.026Z,5.79
2022-11-18T01:17:02.848Z,5.72
2022-11-18T01:27:05.829Z,5.73
2022-11-18T01:37:07.575Z,5.71
2022-11-18T01:47:10.409Z,5.60
2022-11-18T01:57:17.295Z,5.47
2022-11-18T02:07:19.929Z,5.56
2022-11-18T02:17:37.465Z,5.47
2022-11-18T02:27:43.534Z,5.91
2022-11-18T02:37:52.401Z,6.06
2022-11-18T02:47:56.688Z,6.23
2022-11-18T02:58:03.615Z,6.21
2022-11-18T03:08:15.271Z,6.33
2022-11-18T03:18:29.437Z,6.25
2022-11-18T03:28:41.953Z,6.32
2022-11-18T03:38:51.477Z,6.41
2022-11-18T03:48:56.589Z,6.37
2022-11-18T03:59:12.035Z,6.48
2022-11-18T04:09:45.544Z,6.51
2022-11-18T04:19:47.845Z,6.35
2022-11-18T04:29:51.466Z,6.35
2022-11-18T04:39:53.035Z,6.49
2022-11-18T04:49:54.693Z,6.56
2022-11-18T04:59:56.376Z,6.63
2022-11-18T05:09:59.306Z,6.49
2022-11-18T05:20:09.528Z,6.64
2022-11-18T05:30:14.878Z,6.60
2022-11-18T05:40:16.869Z,6.49
2022-11-18T05:50:21.235Z,6.50
2022-11-18T06:00:23.522Z,6.48
2022-11-18T06:10:32.239Z,6.44
2022-11-18T06:20:36.367Z,6.47
2022-11-18T06:30:45.536Z,6.52
2022-11-18T06:40:49.209Z,6.68
2022-11-18T06:50:50.903Z,6.70
2022-11-18T07:00:55.825Z,6.61
2022-11-18T07:10:59.551Z,6.63
2022-11-18T07:21:21.536Z,6.67
2022-11-18T07:31:23.224Z,6.94
2022-11-18T07:41:33.673Z,7.03
2022-11-18T07:51:42.273Z,7.10
2022-11-18T08:01:44.770Z,7.43
2022-11-18T08:11:51.566Z,7.20
2022-11-18T08:21:53.357Z,6.89
2022-11-18T08:31:55.080Z,6.90
2022-11-18T08:41:59.538Z,7.12
2022-11-18T08:52:01.206Z,7.19
2022-11-18T09:02:03.957Z,7.13
2022-11-18T09:12:05.960Z,7.38
2022-11-18T09:22:15.044Z,7.33
2022-11-18T09:32:16.788Z,7.13
2022-11-18T09:42:38.853Z,7.33
2022-11-18T09:52:55.663Z,7.38
2022-11-18T10:03:16.225Z,7.25
2022-11-18T10:13:47.449Z,7.16
2022-11-18T10:23:59.382Z,7.23
2022-11-18T10:34:05.295Z,7.32
2022-11-18T10:44:30.592Z,7.28
2022-11-18T10:54:33.759Z,6.96
2022-11-18T11:04:37.277Z,7.06
2022-11-18T11:14:48.371Z,6.95
2022-11-18T11:24:50.183Z,6.91
2022-11-18T11:35:17.119Z,6.91
2022-11-18T11:45:28.861Z,6.86
2022-11-18T11:56:11.091Z,7.00
2022-11-18T12:06:14.389Z,6.89
2022-11-18T12:17:01.447Z,6.92
2022-11-18T12:27:11.827Z,6.81
2022-11-18T12:37:26.043Z,6.73
2022-11-18T12:47:40.830Z,6.60
2022-11-18T12:57:43.999Z,6.71
2022-11-18T13:08:13.314Z,6.86
2022-11-18T13:18:20.672Z,6.88
2022-11-18T13:28:45.240Z,6.76
2022-11-18T13:39:00.926Z,6.55
2022-11-18T13:49:03.716Z,6.43
2022-11-18T13:59:21.854Z,6.31
2022-11-18T14:09:31.334Z,6.39
2022-11-18T14:19:33.936Z,6.38
2022-11-18T14:29:35.560Z,6.39
2022-11-18T14:39:38.044Z,6.45
2022-11-18T14:49:40.101Z,6.53
2022-11-18T14:59:53.683Z,6.59
2022-11-18T15:09:58.615Z,6.43
2022-11-18T15:20:07.061Z,6.37
2022-11-18T15:30:12.586Z,6.31
2022-11-18T15:40:15.268Z,6.32
2022-11-18T15:50:17.377Z,6.28
2022-11-18T16:00:22.574Z,6.39
2022-11-18T16:10:42.874Z,6.41
2022-11-18T16:20:44.655Z,6.49
2022-11-18T16:31:09.956Z,6.57
2022-11-18T16:41:31.985Z,6.46
2022-11-18T16:51:35.423Z,6.57
2022-11-18T17:01:43.280Z,6.69
2022-11-18T17:11:45.125Z,6.76
2022-11-18T17:21:48.458Z,6.66
2022-11-18T17:31:55.102Z,6.64
2022-11-18T17:42:17.773Z,6.62
2022-11-18T17:53:25.349Z,6.69
2022-11-18T18:03:33.272Z,6.62
2022-11-18T18:13:56.096Z,6.65
2022-11-18T18:23:59.359Z,6.73
2022-11-18T18:34:03.666Z,6.71
2022-11-18T18:44:05.664Z,6.78
2022-11-18T18:54:17.038Z,6.94
2022-11-18T19:04:19.798Z,6.91
2022-11-18T19:14:26.585Z,6.86
2022-11-18T19:24:48.625Z,6.67
2022-11-18T19:34:51.892Z,6.69
2022-11-18T19:44:53.834Z,6.64
2022-11-18T19:55:00.856Z,6.71
2022-11-18T20:05:25.130Z,6.56
2022-11-18T20:15:27.321Z,6.50
2022-11-18T20:25:29.663Z,6.36
2022-11-18T20:35:35.794Z,6.08
2022-11-18T20:45:38.581Z,6.08
2022-11-18T20:55:43.098Z,5.77
2022-11-18T21:05:45.013Z,5.66
2022-11-18T21:15:54.878Z,5.73
2022-11-18T21:26:01.897Z,5.41
2022-11-18T21:36:03.605Z,5.25
2022-11-18T21:46:08.569Z,5.01
2022-11-18T21:56:16.314Z,4.60
2022-11-18T22:06:20.483Z,4.33
2022-11-18T22:16:25.503Z,4.42
2022-11-18T22:26:28.969Z,4.11
2022-11-18T22:36:32.244Z,3.96
2022-11-18T22:46:41.086Z,3.81
2022-11-18T22:56:43.848Z,3.65
2022-11-18T23:06:45.513Z,3.60
2022-11-18T23:16:57.726Z,3.50
2022-11-18T23:26:59.342Z,3.41
2022-11-18T23:37:01.455Z,3.40
2022-11-18T23:47:05.431Z,3.21
2022-11-18T23:57:07.406Z,3.09
